sensor_id;sensor_type;location;lat;lon;timestamp;P1;durP1;ratioP1;P2;durP2;ratioP2
11533;SDS011;5823;50.588;8.462;2023-12-07T00:01:47;0.60;;;0.60;;
11533;SDS011;5823;50.588;8.462;2023-12-07T00:04:14;0.65;;;0.43;;
11533;SDS011;5823;50.588;8.462;2023-12-07T00:06:41;0.82;;;0.73;;
11533;SDS011;5823;50.588;8.462;2023-12-07T00:09:07;0.63;;;0.57;;
11533;SDS011;5823;50.588;8.462;2023-12-07T00:11:33;0.55;;;0.55;;
11533;SDS011;5823;50.588;8.462;2023-12-07T00:14:00;0.45;;;0.45;;
11533;SDS011;5823;50.588;8.462;2023-12-07T00:16:27;0.68;;;0.68;;
11533;SDS011;5823;50.588;8.462;2023-12-07T00:18:53;0.80;;;0.50;;
11533;SDS011;5823;50.588;8.462;2023-12-07T00:21:21;0.80;;;0.77;;
11533;SDS011;5823;50.588;8.462;2023-12-07T00:23:47;0.60;;;0.50;;
11533;SDS011;5823;50.588;8.462;2023-12-07T00:26:14;0.40;;;0.40;;
11533;SDS011;5823;50.588;8.462;2023-12-07T00:28:40;0.50;;;0.50;;
11533;SDS011;5823;50.588;8.462;2023-12-07T00:31:07;0.25;;;0.25;;
11533;SDS011;5823;50.588;8.462;2023-12-07T00:33:33;0.30;;;0.30;;
11533;SDS011;5823;50.588;8.462;2023-12-07T00:35:59;0.50;;;0.50;;
11533;SDS011;5823;50.588;8.462;2023-12-07T00:38:27;0.28;;;0.28;;
11533;SDS011;5823;50.588;8.462;2023-12-07T00:40:53;0.28;;;0.28;;
11533;SDS011;5823;50.588;8.462;2023-12-07T00:43:19;0.45;;;0.45;;
11533;SDS011;5823;50.588;8.462;2023-12-07T00:45:45;0.40;;;0.40;;
11533;SDS011;5823;50.588;8.462;2023-12-07T00:48:12;0.40;;;0.40;;
11533;SDS011;5823;50.588;8.462;2023-12-07T00:50:38;0.50;;;0.50;;
11533;SDS011;5823;50.588;8.462;2023-12-07T00:53:04;0.32;;;0.32;;
11533;SDS011;5823;50.588;8.462;2023-12-07T00:55:32;0.52;;;0.52;;
11533;SDS011;5823;50.588;8.462;2023-12-07T00:57:58;0.40;;;0.40;;
11533;SDS011;5823;50.588;8.462;2023-12-07T01:00:25;0.47;;;0.47;;
11533;SDS011;5823;50.588;8.462;2023-12-07T01:02:51;0.30;;;0.30;;
11533;SDS011;5823;50.588;8.462;2023-12-07T01:05:17;0.30;;;0.30;;
11533;SDS011;5823;50.588;8.462;2023-12-07T01:07:44;0.20;;;0.20;;
11533;SDS011;5823;50.588;8.462;2023-12-07T01:10:10;0.20;;;0.20;;
11533;SDS011;5823;50.588;8.462;2023-12-07T01:12:37;0.38;;;0.38;;
11533;SDS011;5823;50.588;8.462;2023-12-07T01:15:04;0.40;;;0.40;;
11533;SDS011;5823;50.588;8.462;2023-12-07T01:17:30;0.38;;;0.38;;
11533;SDS011;5823;50.588;8.462;2023-12-07T01:19:56;0.40;;;0.40;;
11533;SDS011;5823;50.588;8.462;2023-12-07T01:22:23;0.85;;;0.65;;
11533;SDS011;5823;50.588;8.462;2023-12-07T01:24:49;0.77;;;0.50;;
11533;SDS011;5823;50.588;8.462;2023-12-07T01:27:15;0.32;;;0.32;;
11533;SDS011;5823;50.588;8.462;2023-12-07T01:29:42;0.45;;;0.45;;
11533;SDS011;5823;50.588;8.462;2023-12-07T01:32:09;0.63;;;0.63;;
11533;SDS011;5823;50.588;8.462;2023-12-07T01:34:35;0.68;;;0.50;;
11533;SDS011;5823;50.588;8.462;2023-12-07T01:37:01;0.50;;;0.40;;
11533;SDS011;5823;50.588;8.462;2023-12-07T01:39:28;0.40;;;0.40;;
11533;SDS011;5823;50.588;8.462;2023-12-07T01:41:54;0.70;;;0.60;;
11533;SDS011;5823;50.588;8.462;2023-12-07T01:44:20;0.43;;;0.35;;
11533;SDS011;5823;50.588;8.462;2023-12-07T01:46:47;0.38;;;0.38;;
11533;SDS011;5823;50.588;8.462;2023-12-07T01:49:14;0.40;;;0.40;;
11533;SDS011;5823;50.588;8.462;2023-12-07T01:51:40;0.40;;;0.40;;
11533;SDS011;5823;50.588;8.462;2023-12-07T01:54:07;0.40;;;0.40;;
11533;SDS011;5823;50.588;8.462;2023-12-07T01:56:34;0.40;;;0.40;;
11533;SDS011;5823;50.588;8.462;2023-12-07T01:59:00;0.52;;;0.52;;
11533;SDS011;5823;50.588;8.462;2023-12-07T02:01:27;0.30;;;0.28;;
11533;SDS011;5823;50.588;8.462;2023-12-07T02:03:54;0.25;;;0.25;;
11533;SDS011;5823;50.588;8.462;2023-12-07T02:06:21;0.65;;;0.52;;
11533;SDS011;5823;50.588;8.462;2023-12-07T02:08:47;0.30;;;0.30;;
11533;SDS011;5823;50.588;8.462;2023-12-07T02:11:13;0.40;;;0.40;;
11533;SDS011;5823;50.588;8.462;2023-12-07T02:13:40;0.40;;;0.40;;
11533;SDS011;5823;50.588;8.462;2023-12-07T02:16:07;0.55;;;0.28;;
11533;SDS011;5823;50.588;8.462;2023-12-07T02:18:35;0.40;;;0.40;;
11533;SDS011;5823;50.588;8.462;2023-12-07T02:21:08;0.38;;;0.38;;
11533;SDS011;5823;50.588;8.462;2023-12-07T02:23:36;0.40;;;0.40;;
11533;SDS011;5823;50.588;8.462;2023-12-07T02:26:03;0.50;;;0.50;;
11533;SDS011;5823;50.588;8.462;2023-12-07T02:28:32;0.47;;;0.40;;
11533;SDS011;5823;50.588;8.462;2023-12-07T02:30:59;0.30;;;0.30;;
11533;SDS011;5823;50.588;8.462;2023-12-07T02:33:25;0.32;;;0.30;;
11533;SDS011;5823;50.588;8.462;2023-12-07T02:35:51;0.25;;;0.20;;
11533;SDS011;5823;50.588;8.462;2023-12-07T02:38:17;0.45;;;0.45;;
11533;SDS011;5823;50.588;8.462;2023-12-07T02:40:44;0.40;;;0.40;;
11533;SDS011;5823;50.588;8.462;2023-12-07T02:43:12;0.40;;;0.40;;
11533;SDS011;5823;50.588;8.462;2023-12-07T02:45:40;0.88;;;0.80;;
11533;SDS011;5823;50.588;8.462;2023-12-07T02:48:06;0.20;;;0.20;;
11533;SDS011;5823;50.588;8.462;2023-12-07T02:50:33;0.40;;;0.40;;
11533;SDS011;5823;50.588;8.462;2023-12-07T02:52:59;0.32;;;0.32;;
11533;SDS011;5823;50.588;8.462;2023-12-07T02:55:25;0.30;;;0.30;;
11533;SDS011;5823;50.588;8.462;2023-12-07T02:57:51;0.50;;;0.50;;
11533;SDS011;5823;50.588;8.462;2023-12-07T03:00:18;0.55;;;0.50;;
11533;SDS011;5823;50.588;8.462;2023-12-07T03:02:48;0.43;;;0.43;;
11533;SDS011;5823;50.588;8.462;2023-12-07T03:05:15;1.00;;;0.90;;
11533;SDS011;5823;50.588;8.462;2023-12-07T03:07:42;0.50;;;0.50;;
11533;SDS011;5823;50.588;8.462;2023-12-07T03:10:08;0.45;;;0.43;;
11533;SDS011;5823;50.588;8.462;2023-12-07T03:12:34;0.57;;;0.57;;
11533;SDS011;5823;50.588;8.462;2023-12-07T03:15:01;0.30;;;0.30;;
11533;SDS011;5823;50.588;8.462;2023-12-07T03:17:27;0.30;;;0.30;;
11533;SDS011;5823;50.588;8.462;2023-12-07T03:19:55;0.20;;;0.20;;
11533;SDS011;5823;50.588;8.462;2023-12-07T03:22:21;0.15;;;0.15;;
11533;SDS011;5823;50.588;8.462;2023-12-07T03:24:50;0.43;;;0.43;;
11533;SDS011;5823;50.588;8.462;2023-12-07T03:27:16;0.40;;;0.40;;
11533;SDS011;5823;50.588;8.462;2023-12-07T03:29:42;0.52;;;0.52;;
11533;SDS011;5823;50.588;8.462;2023-12-07T03:32:08;0.40;;;0.40;;
11533;SDS011;5823;50.588;8.462;2023-12-07T03:34:35;0.35;;;0.35;;
11533;SDS011;5823;50.588;8.462;2023-12-07T03:37:02;0.70;;;0.60;;
11533;SDS011;5823;50.588;8.462;2023-12-07T03:39:29;0.20;;;0.20;;
11533;SDS011;5823;50.588;8.462;2023-12-07T03:41:57;0.20;;;0.20;;
11533;SDS011;5823;50.588;8.462;2023-12-07T03:44:23;0.20;;;0.20;;
11533;SDS011;5823;50.588;8.462;2023-12-07T03:46:51;0.40;;;0.40;;
11533;SDS011;5823;50.588;8.462;2023-12-07T03:49:17;0.55;;;0.55;;
11533;SDS011;5823;50.588;8.462;2023-12-07T03:51:43;0.60;;;0.60;;
11533;SDS011;5823;50.588;8.462;2023-12-07T03:54:11;0.17;;;0.15;;
11533;SDS011;5823;50.588;8.462;2023-12-07T03:56:37;0.22;;;0.22;;
11533;SDS011;5823;50.588;8.462;2023-12-07T03:59:05;0.30;;;0.30;;
11533;SDS011;5823;50.588;8.462;2023-12-07T04:01:32;0.38;;;0.38;;
11533;SDS011;5823;50.588;8.462;2023-12-07T04:03:58;0.25;;;0.25;;
11533;SDS011;5823;50.588;8.462;2023-12-07T04:06:25;0.30;;;0.30;;
11533;SDS011;5823;50.588;8.462;2023-12-07T04:08:52;0.30;;;0.30;;
11533;SDS011;5823;50.588;8.462;2023-12-07T04:11:20;0.47;;;0.47;;
11533;SDS011;5823;50.588;8.462;2023-12-07T04:13:47;0.43;;;0.43;;
11533;SDS011;5823;50.588;8.462;2023-12-07T04:16:14;0.43;;;0.43;;
11533;SDS011;5823;50.588;8.462;2023-12-07T04:18:40;0.40;;;0.40;;
11533;SDS011;5823;50.588;8.462;2023-12-07T04:21:06;0.28;;;0.28;;
11533;SDS011;5823;50.588;8.462;2023-12-07T04:23:33;0.60;;;0.60;;
11533;SDS011;5823;50.588;8.462;2023-12-07T04:25:59;0.40;;;0.40;;
11533;SDS011;5823;50.588;8.462;2023-12-07T04:28:27;0.43;;;0.43;;
11533;SDS011;5823;50.588;8.462;2023-12-07T04:30:53;0.40;;;0.40;;
11533;SDS011;5823;50.588;8.462;2023-12-07T04:33:19;0.10;;;0.10;;
11533;SDS011;5823;50.588;8.462;2023-12-07T04:35:45;0.50;;;0.50;;
11533;SDS011;5823;50.588;8.462;2023-12-07T04:38:12;0.70;;;0.70;;
11533;SDS011;5823;50.588;8.462;2023-12-07T04:40:38;0.50;;;0.50;;
11533;SDS011;5823;50.588;8.462;2023-12-07T04:43:04;0.50;;;0.50;;
11533;SDS011;5823;50.588;8.462;2023-12-07T04:45:32;0.30;;;0.30;;
11533;SDS011;5823;50.588;8.462;2023-12-07T04:47:58;0.43;;;0.40;;
11533;SDS011;5823;50.588;8.462;2023-12-07T04:50:25;0.60;;;0.60;;
11533;SDS011;5823;50.588;8.462;2023-12-07T04:52:51;0.40;;;0.40;;
11533;SDS011;5823;50.588;8.462;2023-12-07T04:55:19;0.47;;;0.47;;
11533;SDS011;5823;50.588;8.462;2023-12-07T04:57:45;0.30;;;0.30;;
11533;SDS011;5823;50.588;8.462;2023-12-07T05:00:12;0.70;;;0.70;;
11533;SDS011;5823;50.588;8.462;2023-12-07T05:02:40;0.43;;;0.43;;
11533;SDS011;5823;50.588;8.462;2023-12-07T05:05:06;0.32;;;0.32;;
11533;SDS011;5823;50.588;8.462;2023-12-07T05:07:33;0.70;;;0.70;;
11533;SDS011;5823;50.588;8.462;2023-12-07T05:10:00;0.47;;;0.47;;
11533;SDS011;5823;50.588;8.462;2023-12-07T05:12:27;0.30;;;0.30;;
11533;SDS011;5823;50.588;8.462;2023-12-07T05:14:53;0.60;;;0.60;;
11533;SDS011;5823;50.588;8.462;2023-12-07T05:17:20;0.57;;;0.52;;
11533;SDS011;5823;50.588;8.462;2023-12-07T05:19:47;0.65;;;0.65;;
11533;SDS011;5823;50.588;8.462;2023-12-07T05:22:13;0.22;;;0.22;;
11533;SDS011;5823;50.588;8.462;2023-12-07T05:24:40;0.60;;;0.52;;
11533;SDS011;5823;50.588;8.462;2023-12-07T05:27:06;0.38;;;0.38;;
11533;SDS011;5823;50.588;8.462;2023-12-07T05:29:32;0.30;;;0.30;;
11533;SDS011;5823;50.588;8.462;2023-12-07T05:31:59;0.40;;;0.40;;
11533;SDS011;5823;50.588;8.462;2023-12-07T05:34:25;0.43;;;0.43;;
11533;SDS011;5823;50.588;8.462;2023-12-07T05:36:52;0.30;;;0.30;;
11533;SDS011;5823;50.588;8.462;2023-12-07T05:39:18;0.40;;;0.40;;
11533;SDS011;5823;50.588;8.462;2023-12-07T05:41:45;0.52;;;0.52;;
11533;SDS011;5823;50.588;8.462;2023-12-07T05:44:12;0.50;;;0.50;;
11533;SDS011;5823;50.588;8.462;2023-12-07T05:46:39;0.50;;;0.38;;
11533;SDS011;5823;50.588;8.462;2023-12-07T05:49:09;1.02;;;0.93;;
11533;SDS011;5823;50.588;8.462;2023-12-07T05:51:35;0.80;;;0.80;;
11533;SDS011;5823;50.588;8.462;2023-12-07T05:54:02;0.75;;;0.75;;
11533;SDS011;5823;50.588;8.462;2023-12-07T05:56:29;0.40;;;0.40;;
11533;SDS011;5823;50.588;8.462;2023-12-07T05:58:56;0.47;;;0.47;;
11533;SDS011;5823;50.588;8.462;2023-12-07T06:01:22;0.22;;;0.22;;
11533;SDS011;5823;50.588;8.462;2023-12-07T06:03:49;0.68;;;0.68;;
11533;SDS011;5823;50.588;8.462;2023-12-07T06:06:15;0.50;;;0.50;;
11533;SDS011;5823;50.588;8.462;2023-12-07T06:08:42;0.50;;;0.50;;
11533;SDS011;5823;50.588;8.462;2023-12-07T06:11:10;0.57;;;0.47;;
11533;SDS011;5823;50.588;8.462;2023-12-07T06:13:37;0.50;;;0.45;;
11533;SDS011;5823;50.588;8.462;2023-12-07T06:16:03;0.73;;;0.65;;
11533;SDS011;5823;50.588;8.462;2023-12-07T06:18:30;0.70;;;0.70;;
11533;SDS011;5823;50.588;8.462;2023-12-07T06:20:56;0.80;;;0.80;;
11533;SDS011;5823;50.588;8.462;2023-12-07T06:23:22;0.60;;;0.60;;
11533;SDS011;5823;50.588;8.462;2023-12-07T06:25:48;0.40;;;0.40;;
11533;SDS011;5823;50.588;8.462;2023-12-07T06:28:16;0.73;;;0.70;;
11533;SDS011;5823;50.588;8.462;2023-12-07T06:30:43;0.60;;;0.50;;
11533;SDS011;5823;50.588;8.462;2023-12-07T06:33:09;0.52;;;0.52;;
11533;SDS011;5823;50.588;8.462;2023-12-07T06:35:36;0.50;;;0.50;;
11533;SDS011;5823;50.588;8.462;2023-12-07T06:38:02;0.80;;;0.55;;
11533;SDS011;5823;50.588;8.462;2023-12-07T06:40:28;0.47;;;0.47;;
11533;SDS011;5823;50.588;8.462;2023-12-07T06:42:56;0.60;;;0.60;;
11533;SDS011;5823;50.588;8.462;2023-12-07T06:45:24;0.60;;;0.60;;
11533;SDS011;5823;50.588;8.462;2023-12-07T06:47:50;0.60;;;0.60;;
11533;SDS011;5823;50.588;8.462;2023-12-07T06:50:16;0.63;;;0.63;;
11533;SDS011;5823;50.588;8.462;2023-12-07T06:52:42;0.45;;;0.40;;
11533;SDS011;5823;50.588;8.462;2023-12-07T06:55:10;0.60;;;0.52;;
11533;SDS011;5823;50.588;8.462;2023-12-07T06:57:36;0.90;;;0.70;;
11533;SDS011;5823;50.588;8.462;2023-12-07T07:00:02;0.40;;;0.40;;
11533;SDS011;5823;50.588;8.462;2023-12-07T07:02:36;0.93;;;0.80;;
11533;SDS011;5823;50.588;8.462;2023-12-07T07:05:03;0.20;;;0.20;;
11533;SDS011;5823;50.588;8.462;2023-12-07T07:07:30;0.40;;;0.40;;
11533;SDS011;5823;50.588;8.462;2023-12-07T07:09:57;0.30;;;0.30;;
11533;SDS011;5823;50.588;8.462;2023-12-07T07:12:23;0.47;;;0.47;;
11533;SDS011;5823;50.588;8.462;2023-12-07T07:14:50;0.32;;;0.32;;
11533;SDS011;5823;50.588;8.462;2023-12-07T07:17:16;0.50;;;0.50;;
11533;SDS011;5823;50.588;8.462;2023-12-07T07:19:43;0.20;;;0.20;;
11533;SDS011;5823;50.588;8.462;2023-12-07T07:22:10;0.40;;;0.40;;
11533;SDS011;5823;50.588;8.462;2023-12-07T07:24:36;0.30;;;0.30;;
11533;SDS011;5823;50.588;8.462;2023-12-07T07:27:02;0.50;;;0.50;;
11533;SDS011;5823;50.588;8.462;2023-12-07T07:29:28;0.50;;;0.40;;
11533;SDS011;5823;50.588;8.462;2023-12-07T07:31:55;0.30;;;0.30;;
11533;SDS011;5823;50.588;8.462;2023-12-07T07:34:21;0.30;;;0.30;;
11533;SDS011;5823;50.588;8.462;2023-12-07T07:36:49;0.40;;;0.40;;
11533;SDS011;5823;50.588;8.462;2023-12-07T07:39:15;0.50;;;0.50;;
11533;SDS011;5823;50.588;8.462;2023-12-07T07:41:42;0.40;;;0.32;;
11533;SDS011;5823;50.588;8.462;2023-12-07T07:44:08;0.45;;;0.45;;
11533;SDS011;5823;50.588;8.462;2023-12-07T07:46:34;0.52;;;0.50;;
11533;SDS011;5823;50.588;8.462;2023-12-07T07:49:00;0.43;;;0.43;;
11533;SDS011;5823;50.588;8.462;2023-12-07T07:51:28;0.40;;;0.35;;
11533;SDS011;5823;50.588;8.462;2023-12-07T07:53:56;0.40;;;0.40;;
11533;SDS011;5823;50.588;8.462;2023-12-07T07:56:22;0.50;;;0.40;;
11533;SDS011;5823;50.588;8.462;2023-12-07T07:58:48;0.60;;;0.60;;
11533;SDS011;5823;50.588;8.462;2023-12-07T08:01:15;0.50;;;0.50;;
11533;SDS011;5823;50.588;8.462;2023-12-07T08:03:41;0.70;;;0.70;;
11533;SDS011;5823;50.588;8.462;2023-12-07T08:06:07;0.60;;;0.60;;
11533;SDS011;5823;50.588;8.462;2023-12-07T08:08:34;0.52;;;0.43;;
11533;SDS011;5823;50.588;8.462;2023-12-07T08:11:01;0.68;;;0.60;;
11533;SDS011;5823;50.588;8.462;2023-12-07T08:13:28;0.52;;;0.52;;
11533;SDS011;5823;50.588;8.462;2023-12-07T08:15:54;0.50;;;0.50;;
11533;SDS011;5823;50.588;8.462;2023-12-07T08:18:20;0.40;;;0.40;;
11533;SDS011;5823;50.588;8.462;2023-12-07T08:20:47;1.10;;;0.80;;
11533;SDS011;5823;50.588;8.462;2023-12-07T08:23:13;1.17;;;1.00;;
11533;SDS011;5823;50.588;8.462;2023-12-07T08:25:39;0.80;;;0.70;;
11533;SDS011;5823;50.588;8.462;2023-12-07T08:28:07;0.60;;;0.60;;
11533;SDS011;5823;50.588;8.462;2023-12-07T08:30:34;0.60;;;0.60;;
11533;SDS011;5823;50.588;8.462;2023-12-07T08:33:00;0.63;;;0.47;;
11533;SDS011;5823;50.588;8.462;2023-12-07T08:35:26;0.52;;;0.43;;
11533;SDS011;5823;50.588;8.462;2023-12-07T08:37:53;0.40;;;0.40;;
11533;SDS011;5823;50.588;8.462;2023-12-07T08:40:19;0.70;;;0.70;;
11533;SDS011;5823;50.588;8.462;2023-12-07T08:42:46;0.80;;;0.80;;
11533;SDS011;5823;50.588;8.462;2023-12-07T08:45:14;0.63;;;0.63;;
11533;SDS011;5823;50.588;8.462;2023-12-07T08:47:41;0.60;;;0.60;;
11533;SDS011;5823;50.588;8.462;2023-12-07T08:50:07;1.05;;;0.80;;
11533;SDS011;5823;50.588;8.462;2023-12-07T08:52:34;0.75;;;0.73;;
11533;SDS011;5823;50.588;8.462;2023-12-07T08:55:00;0.70;;;0.70;;
11533;SDS011;5823;50.588;8.462;2023-12-07T08:57:26;0.57;;;0.55;;
11533;SDS011;5823;50.588;8.462;2023-12-07T08:59:53;0.70;;;0.70;;
11533;SDS011;5823;50.588;8.462;2023-12-07T09:02:21;0.80;;;0.70;;
11533;SDS011;5823;50.588;8.462;2023-12-07T09:04:47;0.73;;;0.70;;
11533;SDS011;5823;50.588;8.462;2023-12-07T09:07:16;0.57;;;0.57;;
11533;SDS011;5823;50.588;8.462;2023-12-07T09:09:42;0.50;;;0.40;;
11533;SDS011;5823;50.588;8.462;2023-12-07T09:12:12;0.40;;;0.40;;
11533;SDS011;5823;50.588;8.462;2023-12-07T09:14:38;0.40;;;0.40;;
11533;SDS011;5823;50.588;8.462;2023-12-07T09:17:04;0.38;;;0.30;;
11533;SDS011;5823;50.588;8.462;2023-12-07T09:19:32;0.40;;;0.40;;
11533;SDS011;5823;50.588;8.462;2023-12-07T09:21:58;1.00;;;0.90;;
11533;SDS011;5823;50.588;8.462;2023-12-07T09:24:24;0.70;;;0.70;;
11533;SDS011;5823;50.588;8.462;2023-12-07T09:26:50;0.70;;;0.70;;
11533;SDS011;5823;50.588;8.462;2023-12-07T09:29:17;1.08;;;0.57;;
11533;SDS011;5823;50.588;8.462;2023-12-07T09:31:43;0.65;;;0.65;;
11533;SDS011;5823;50.588;8.462;2023-12-07T09:34:09;0.65;;;0.65;;
11533;SDS011;5823;50.588;8.462;2023-12-07T09:36:38;0.40;;;0.40;;
11533;SDS011;5823;50.588;8.462;2023-12-07T09:39:04;0.63;;;0.60;;
11533;SDS011;5823;50.588;8.462;2023-12-07T09:41:30;0.80;;;0.55;;
11533;SDS011;5823;50.588;8.462;2023-12-07T09:43:57;1.00;;;0.90;;
11533;SDS011;5823;50.588;8.462;2023-12-07T09:46:25;0.47;;;0.47;;
11533;SDS011;5823;50.588;8.462;2023-12-07T09:48:51;1.17;;;1.02;;
11533;SDS011;5823;50.588;8.462;2023-12-07T09:51:18;1.20;;;0.95;;
11533;SDS011;5823;50.588;8.462;2023-12-07T09:53:46;1.00;;;0.80;;
11533;SDS011;5823;50.588;8.462;2023-12-07T09:56:14;0.85;;;0.80;;
11533;SDS011;5823;50.588;8.462;2023-12-07T09:58:40;0.85;;;0.70;;
11533;SDS011;5823;50.588;8.462;2023-12-07T10:01:07;0.50;;;0.50;;
11533;SDS011;5823;50.588;8.462;2023-12-07T10:03:34;0.90;;;0.80;;
11533;SDS011;5823;50.588;8.462;2023-12-07T10:06:00;0.52;;;0.52;;
11533;SDS011;5823;50.588;8.462;2023-12-07T10:08:27;0.50;;;0.50;;
11533;SDS011;5823;50.588;8.462;2023-12-07T10:11:02;0.57;;;0.57;;
11533;SDS011;5823;50.588;8.462;2023-12-07T10:13:30;0.90;;;0.82;;
11533;SDS011;5823;50.588;8.462;2023-12-07T10:16:04;0.52;;;0.50;;
11533;SDS011;5823;50.588;8.462;2023-12-07T10:18:31;0.70;;;0.57;;
11533;SDS011;5823;50.588;8.462;2023-12-07T10:20:57;0.38;;;0.38;;
11533;SDS011;5823;50.588;8.462;2023-12-07T10:23:23;0.80;;;0.60;;
11533;SDS011;5823;50.588;8.462;2023-12-07T10:25:51;0.88;;;0.80;;
11533;SDS011;5823;50.588;8.462;2023-12-07T10:28:19;0.63;;;0.63;;
11533;SDS011;5823;50.588;8.462;2023-12-07T10:30:45;0.50;;;0.50;;
11533;SDS011;5823;50.588;8.462;2023-12-07T10:33:11;0.73;;;0.65;;
11533;SDS011;5823;50.588;8.462;2023-12-07T10:35:38;0.65;;;0.60;;
11533;SDS011;5823;50.588;8.462;2023-12-07T10:38:04;0.57;;;0.55;;
11533;SDS011;5823;50.588;8.462;2023-12-07T10:40:30;1.10;;;1.00;;
11533;SDS011;5823;50.588;8.462;2023-12-07T10:42:57;1.52;;;1.20;;
11533;SDS011;5823;50.588;8.462;2023-12-07T10:45:25;3.50;;;1.60;;
11533;SDS011;5823;50.588;8.462;2023-12-07T10:47:53;1.58;;;1.48;;
11533;SDS011;5823;50.588;8.462;2023-12-07T10:50:21;1.30;;;1.20;;
11533;SDS011;5823;50.588;8.462;2023-12-07T10:52:51;1.95;;;1.67;;
11533;SDS011;5823;50.588;8.462;2023-12-07T10:55:19;2.42;;;1.20;;
11533;SDS011;5823;50.588;8.462;2023-12-07T10:57:47;1.50;;;1.40;;
11533;SDS011;5823;50.588;8.462;2023-12-07T11:00:14;1.85;;;1.60;;
11533;SDS011;5823;50.588;8.462;2023-12-07T11:02:42;1.90;;;1.70;;
11533;SDS011;5823;50.588;8.462;2023-12-07T11:05:09;1.25;;;1.15;;
11533;SDS011;5823;50.588;8.462;2023-12-07T11:07:38;1.10;;;1.00;;
11533;SDS011;5823;50.588;8.462;2023-12-07T11:10:10;0.98;;;0.98;;
11533;SDS011;5823;50.588;8.462;2023-12-07T11:12:38;1.08;;;1.05;;
11533;SDS011;5823;50.588;8.462;2023-12-07T11:15:06;2.70;;;1.60;;
11533;SDS011;5823;50.588;8.462;2023-12-07T11:20:19;1.20;;;1.10;;
11533;SDS011;5823;50.588;8.462;2023-12-07T11:22:45;0.77;;;0.77;;
11533;SDS011;5823;50.588;8.462;2023-12-07T11:25:14;1.23;;;1.13;;
11533;SDS011;5823;50.588;8.462;2023-12-07T11:27:40;0.80;;;0.80;;
11533;SDS011;5823;50.588;8.462;2023-12-07T11:30:12;1.33;;;1.23;;
11533;SDS011;5823;50.588;8.462;2023-12-07T11:32:38;1.27;;;1.10;;
11533;SDS011;5823;50.588;8.462;2023-12-07T11:35:05;1.38;;;1.08;;
11533;SDS011;5823;50.588;8.462;2023-12-07T11:40:18;1.27;;;1.17;;
11533;SDS011;5823;50.588;8.462;2023-12-07T11:42:44;1.52;;;1.42;;
11533;SDS011;5823;50.588;8.462;2023-12-07T11:45:11;1.17;;;1.05;;
11533;SDS011;5823;50.588;8.462;2023-12-07T11:47:37;0.95;;;0.85;;
11533;SDS011;5823;50.588;8.462;2023-12-07T11:50:03;1.52;;;1.20;;
11533;SDS011;5823;50.588;8.462;2023-12-07T11:52:30;1.17;;;0.90;;
11533;SDS011;5823;50.588;8.462;2023-12-07T11:54:56;1.17;;;1.08;;
11533;SDS011;5823;50.588;8.462;2023-12-07T11:57:24;1.33;;;1.10;;
11533;SDS011;5823;50.588;8.462;2023-12-07T11:59:50;1.40;;;1.20;;
11533;SDS011;5823;50.588;8.462;2023-12-07T12:02:16;0.90;;;0.80;;
11533;SDS011;5823;50.588;8.462;2023-12-07T12:04:42;1.23;;;0.82;;
11533;SDS011;5823;50.588;8.462;2023-12-07T12:07:09;1.05;;;0.95;;
11533;SDS011;5823;50.588;8.462;2023-12-07T12:09:35;1.02;;;0.88;;
11533;SDS011;5823;50.588;8.462;2023-12-07T12:12:01;0.90;;;0.80;;
11533;SDS011;5823;50.588;8.462;2023-12-07T12:14:29;1.58;;;1.38;;
11533;SDS011;5823;50.588;8.462;2023-12-07T12:16:55;1.45;;;1.20;;
11533;SDS011;5823;50.588;8.462;2023-12-07T12:19:22;2.40;;;1.70;;
11533;SDS011;5823;50.588;8.462;2023-12-07T12:21:48;1.30;;;1.10;;
11533;SDS011;5823;50.588;8.462;2023-12-07T12:24:15;0.80;;;0.80;;
11533;SDS011;5823;50.588;8.462;2023-12-07T12:26:41;2.38;;;1.67;;
11533;SDS011;5823;50.588;8.462;2023-12-07T12:29:08;1.50;;;1.15;;
11533;SDS011;5823;50.588;8.462;2023-12-07T12:31:38;0.68;;;0.63;;
11533;SDS011;5823;50.588;8.462;2023-12-07T12:34:05;1.00;;;0.90;;
11533;SDS011;5823;50.588;8.462;2023-12-07T12:36:32;1.05;;;0.95;;
11533;SDS011;5823;50.588;8.462;2023-12-07T12:38:58;0.77;;;0.73;;
11533;SDS011;5823;50.588;8.462;2023-12-07T12:41:27;1.88;;;0.88;;
11533;SDS011;5823;50.588;8.462;2023-12-07T12:43:55;1.70;;;1.30;;
11533;SDS011;5823;50.588;8.462;2023-12-07T12:46:22;0.85;;;0.82;;
11533;SDS011;5823;50.588;8.462;2023-12-07T12:48:54;0.80;;;0.70;;
11533;SDS011;5823;50.588;8.462;2023-12-07T12:51:22;1.00;;;0.90;;
11533;SDS011;5823;50.588;8.462;2023-12-07T12:53:50;0.88;;;0.80;;
11533;SDS011;5823;50.588;8.462;2023-12-07T12:56:16;1.00;;;0.95;;
11533;SDS011;5823;50.588;8.462;2023-12-07T12:58:44;1.58;;;1.48;;
11533;SDS011;5823;50.588;8.462;2023-12-07T13:01:10;1.00;;;0.90;;
11533;SDS011;5823;50.588;8.462;2023-12-07T13:03:36;1.02;;;0.88;;
11533;SDS011;5823;50.588;8.462;2023-12-07T13:06:04;1.67;;;1.38;;
11533;SDS011;5823;50.588;8.462;2023-12-07T13:08:31;1.10;;;0.98;;
11533;SDS011;5823;50.588;8.462;2023-12-07T13:10:58;1.48;;;1.15;;
11533;SDS011;5823;50.588;8.462;2023-12-07T13:13:24;1.90;;;1.70;;
11533;SDS011;5823;50.588;8.462;2023-12-07T13:15:51;3.47;;;2.30;;
11533;SDS011;5823;50.588;8.462;2023-12-07T13:18:17;2.20;;;1.75;;
11533;SDS011;5823;50.588;8.462;2023-12-07T13:20:44;2.28;;;1.95;;
11533;SDS011;5823;50.588;8.462;2023-12-07T13:23:11;1.58;;;1.42;;
11533;SDS011;5823;50.588;8.462;2023-12-07T13:25:37;2.08;;;1.58;;
11533;SDS011;5823;50.588;8.462;2023-12-07T13:28:04;1.83;;;1.30;;
11533;SDS011;5823;50.588;8.462;2023-12-07T13:30:30;1.23;;;1.13;;
11533;SDS011;5823;50.588;8.462;2023-12-07T13:33:00;1.40;;;1.30;;
11533;SDS011;5823;50.588;8.462;2023-12-07T13:35:26;2.20;;;1.80;;
11533;SDS011;5823;50.588;8.462;2023-12-07T13:37:52;2.35;;;1.70;;
11533;SDS011;5823;50.588;8.462;2023-12-07T13:40:20;1.88;;;1.67;;
11533;SDS011;5823;50.588;8.462;2023-12-07T13:42:46;1.70;;;1.20;;
11533;SDS011;5823;50.588;8.462;2023-12-07T13:45:12;1.65;;;1.10;;
11533;SDS011;5823;50.588;8.462;2023-12-07T13:47:39;1.30;;;1.20;;
11533;SDS011;5823;50.588;8.462;2023-12-07T13:50:06;1.40;;;1.30;;
11533;SDS011;5823;50.588;8.462;2023-12-07T13:52:32;1.13;;;1.00;;
11533;SDS011;5823;50.588;8.462;2023-12-07T13:54:59;1.20;;;1.08;;
11533;SDS011;5823;50.588;8.462;2023-12-07T13:57:28;1.33;;;1.23;;
11533;SDS011;5823;50.588;8.462;2023-12-07T13:59:54;1.90;;;1.42;;
11533;SDS011;5823;50.588;8.462;2023-12-07T14:02:21;1.98;;;1.45;;
11533;SDS011;5823;50.588;8.462;2023-12-07T14:04:47;1.70;;;1.60;;
11533;SDS011;5823;50.588;8.462;2023-12-07T14:07:15;2.70;;;2.00;;
11533;SDS011;5823;50.588;8.462;2023-12-07T14:09:42;1.90;;;1.55;;
11533;SDS011;5823;50.588;8.462;2023-12-07T14:12:09;2.03;;;1.70;;
11533;SDS011;5823;50.588;8.462;2023-12-07T14:14:39;1.80;;;1.40;;
11533;SDS011;5823;50.588;8.462;2023-12-07T14:17:05;1.70;;;1.60;;
11533;SDS011;5823;50.588;8.462;2023-12-07T14:19:31;1.38;;;1.27;;
11533;SDS011;5823;50.588;8.462;2023-12-07T14:21:57;1.67;;;1.10;;
11533;SDS011;5823;50.588;8.462;2023-12-07T14:24:24;1.70;;;1.27;;
11533;SDS011;5823;50.588;8.462;2023-12-07T14:26:51;1.85;;;1.27;;
11533;SDS011;5823;50.588;8.462;2023-12-07T14:29:17;2.45;;;1.83;;
11533;SDS011;5823;50.588;8.462;2023-12-07T14:31:47;1.83;;;1.48;;
11533;SDS011;5823;50.588;8.462;2023-12-07T14:34:14;4.80;;;3.17;;
11533;SDS011;5823;50.588;8.462;2023-12-07T14:36:40;2.20;;;1.75;;
11533;SDS011;5823;50.588;8.462;2023-12-07T14:39:09;2.15;;;1.95;;
11533;SDS011;5823;50.588;8.462;2023-12-07T14:41:35;2.33;;;1.77;;
11533;SDS011;5823;50.588;8.462;2023-12-07T14:44:01;3.67;;;2.95;;
11533;SDS011;5823;50.588;8.462;2023-12-07T14:46:28;2.95;;;2.05;;
11533;SDS011;5823;50.588;8.462;2023-12-07T14:48:55;2.63;;;2.13;;
11533;SDS011;5823;50.588;8.462;2023-12-07T14:51:22;2.38;;;1.80;;
11533;SDS011;5823;50.588;8.462;2023-12-07T14:53:48;1.80;;;1.42;;
11533;SDS011;5823;50.588;8.462;2023-12-07T14:56:14;2.65;;;1.80;;
11533;SDS011;5823;50.588;8.462;2023-12-07T14:58:41;2.05;;;1.80;;
11533;SDS011;5823;50.588;8.462;2023-12-07T15:01:07;1.23;;;1.10;;
11533;SDS011;5823;50.588;8.462;2023-12-07T15:03:33;1.40;;;1.30;;